Latest Coastal Weather Observations for Kingscote

IDS60701

Issued at 8:01 pm CST Wednesday 5 August 2015 (issued every 10 minutes, with the page automatically refreshed every 10 minutes)

About coastal observations | Map of coastal stations | Coastal observations for SA | Marine services | Other Formats
Station Details ID: 022841 Name: KINGSCOTE AERO Lat: -35.71 Lon: 137.52 Height: 6.23 m
Data from the previous 72 hours. | See also: Recent months at Kingscote
Date/Time
CST
Temp

°C
Wind Pressure Rain
since 9am
mm
Weather Cloud Vis
km
Sea
Height
m
Swell
Dir
 
Speed
knots
Gust
knots
hPa Trend Height
m
Period
s
Dir
05/08:00pm 7.3 W 5 5 1023.9 - 0.6 - Partly cloudy 10 - - - -
05/07:30pm 8.4 SW 5 6 1023.8 - 0.6 - Partly cloudy 10 - - - -
05/07:00pm 9.0 SW 6 8 1023.7 - 0.6 - Partly cloudy 10 - - - -
05/06:30pm 9.5 SW 7 9 1023.3 - 0.6 - Partly cloudy 10 - - - -
05/06:00pm 9.5 SSW 7 9 1023.1 - 0.6 - Partly cloudy 10 - - - -
05/05:30pm 10.4 SSW 12 18 1022.8 - 0.6 - Partly cloudy 10 - - - -
05/05:00pm 10.9 SW 9 14 1022.5 - 0.6 - Partly cloudy 10 - - - -
05/04:30pm 11.0 SSW 13 17 1022.5 - 0.6 - Partly cloudy 10 - - - -
05/04:00pm 11.9 SW 12 18 1022.1 - 0.2 - Partly cloudy 10 - - - -
05/03:30pm 10.7 SW 15 24 1022.2 - 0.2 - Partly cloudy 9 - - - -
05/03:00pm 13.1 SSW 13 19 1021.9 - 0.2 - Mostly cloudy 10 - - - -
05/02:30pm 13.4 SW 13 17 1021.8 - 0.2 - Partly cloudy 10 - - - -
05/02:00pm 11.0 SW 17 24 1021.9 - 0.2 - Partly cloudy 10 - - - -
05/01:30pm 12.7 SSW 16 22 1021.6 - 0.2 - Partly cloudy 10 - - - -
05/01:00pm 11.9 SW 16 24 1021.9 - 0.2 - Partly cloudy 10 - - - -
05/12:30pm 12.5 SSW 15 23 1021.9 - 0.2 - Partly cloudy 10 - - - -
05/12:00pm 12.6 SSW 13 19 1022.3 - 0.2 - Partly cloudy 10 - - - -
05/11:30am 13.0 SSW 15 21 1022.4 - 0.2 - Partly cloudy 10 - - - -
05/11:00am 12.0 SSW 15 22 1022.4 - 0.2 - Partly cloudy 10 - - - -
05/10:30am 10.7 SSW 14 24 1022.5 - 0.2 - Partly cloudy 10 - - - -
05/10:21am 10.6 SSW 15 25 1022.5 - 0.2 - Partly cloudy 7 - - - -
05/10:00am 12.0 SW 14 18 1022.1 - 0.0 - Partly cloudy 10 - - - -
05/09:30am 10.6 SSW 13 18 1022.2 - 0.0 - Partly cloudy 10 - - - -
05/09:00am 10.3 WSW 9 11 1021.9 - 0.8 - Mostly cloudy 10 - - - -
05/08:30am 9.6 SW 10 14 1021.5 - 0.8 - Partly cloudy 10 - - - -
05/08:00am 8.8 WSW 6 8 1021.4 - 0.8 - Partly cloudy 10 - - - -
05/07:30am 8.3 SW 7 11 1021.0 - 0.8 - Partly cloudy 10 - - - -
05/07:00am 7.6 WSW 5 7 1020.9 - 0.6 - Partly cloudy 10 - - - -
05/06:30am 9.2 SW 11 16 1020.7 - 0.6 - Partly cloudy 10 - - - -
05/06:00am 8.9 WSW 8 10 1020.6 - 0.6 Recent precip. Cloudy 10 - - - -
05/05:30am 9.0 W 10 12 1020.4 - 0.4 - Partly cloudy 10 - - - -
05/05:00am 8.7 WSW 9 11 1020.4 - 0.4 - Partly cloudy 10 - - - -
05/04:56am 8.5 WSW 9 11 1020.4 - 0.4 - Partly cloudy 10 - - - -
05/04:46am 8.8 WSW 8 10 1020.4 - 0.4 - Partly cloudy 5 - - - -
05/04:30am 8.6 W 7 9 1020.5 - 0.2 - Partly cloudy 10 - - - -
05/04:00am 7.9 W 7 9 1020.3 - 0.2 - Partly cloudy 10 - - - -
05/03:30am 7.2 NW 7 9 1020.3 - 0.2 - Partly cloudy 10 - - - -
05/03:12am 8.0 W 7 9 1020.6 - 0.2 - Partly cloudy 10 - - - -
05/03:00am 8.4 W 8 11 1020.7 - 0.2 Rain Cloudy 5 - - - -
05/02:30am 8.1 W 8 11 1020.8 - 0.0 - Partly cloudy 10 - - - -
05/02:00am 8.4 W 7 9 1021.1 - 0.0 - Partly cloudy 10 - - - -
05/01:30am 8.6 W 10 13 1021.2 - 0.0 - - 10 - - - -
05/01:00am 8.7 W 10 14 1021.4 - 0.0 - Partly cloudy 10 - - - -
05/12:30am 8.4 W 8 10 1021.8 - 0.0 - Partly cloudy 10 - - - -
05/12:00am 8.1 W 7 8 1022.0 - 0.0 - Mostly clear 10 - - - -
 
Date/Time
CST
Temp

°C
Wind Pressure Rain
since 9am
mm
Weather Cloud Vis
km
Sea
Height
m
Swell
Dir
 
Speed
knots
Gust
knots
hPa Trend Height
m
Period
s
Dir
04/11:30pm 8.8 W 9 12 1022.3 - 0.0 - Partly cloudy 10 - - - -
04/11:00pm 8.2 W 7 8 1022.4 - 0.0 - Partly cloudy 10 - - - -
04/10:30pm 8.6 W 7 9 1022.3 - 0.0 - Partly cloudy 10 - - - -
04/10:00pm 8.8 WSW 7 8 1022.5 - 0.0 - - 10 - - - -
04/09:30pm 9.8 W 8 10 1022.4 - 0.0 - Partly cloudy 10 - - - -
04/09:00pm 10.3 W 10 14 1022.5 - 0.0 - Cloudy 10 - - - -
04/08:30pm 9.0 WSW 5 6 1022.6 - 0.0 - Partly cloudy 10 - - - -
04/08:00pm 9.0 WNW 5 7 1022.6 - 0.0 - Partly cloudy 10 - - - -
04/07:30pm 9.0 WNW 6 8 1022.7 - 0.0 - Partly cloudy 10 - - - -
04/07:00pm 8.5 WNW 7 9 1022.9 - 0.0 - - 10 - - - -
04/06:30pm 8.9 WNW 7 8 1022.9 - 0.0 - - 10 - - - -
04/06:00pm 9.9 WNW 8 10 1023.0 - 0.0 - - 10 - - - -
04/05:30pm 10.7 W 9 11 1023.1 - 0.0 - - 10 - - - -
04/05:00pm 11.9 W 11 14 1023.2 - 0.0 - Partly cloudy 10 - - - -
04/04:30pm 12.7 WNW 9 11 1023.3 - 0.0 - Partly cloudy 10 - - - -
04/04:00pm 13.0 W 12 18 1023.6 - 0.0 - Cloudy 10 - - - -
04/03:30pm 12.6 W 12 16 1023.9 - 0.0 - Partly cloudy 10 - - - -
04/03:00pm 13.1 W 9 14 1024.1 - 0.0 - Cloudy 10 - - - -
04/02:30pm 12.8 WSW 13 16 1024.2 - 0.0 - Partly cloudy 10 - - - -
04/02:00pm 13.3 WSW 12 15 1024.3 - 0.0 - Cloudy 10 - - - -
04/01:30pm 13.3 WSW 15 19 1024.5 - 0.0 - Partly cloudy 10 - - - -
04/01:00pm 12.5 W 15 22 1025.2 - 0.0 - Partly cloudy 10 - - - -
04/12:30pm 13.6 WSW 14 19 1025.5 - 0.0 - Partly cloudy 10 - - - -
04/12:00pm 11.0 WSW 14 19 1026.4 - 0.0 - Cloudy 10 - - - -
04/11:50am 10.8 WSW 15 23 1026.5 - 0.0 - Partly cloudy 10 - - - -
04/11:30am 13.0 WSW 10 13 1026.6 - 0.0 - Partly cloudy 10 - - - -
04/11:00am 11.3 WSW 8 10 1027.0 - 0.0 - Partly cloudy 10 - - - -
04/10:30am 12.4 W 10 13 1027.1 - 0.0 - Partly cloudy 10 - - - -
04/10:00am 11.1 WSW 6 8 1027.1 - 0.0 - Partly cloudy 10 - - - -
04/09:30am 9.8 W 3 4 1027.2 - 0.0 - - 10 - - - -
04/09:00am 8.5 NW 5 6 1027.2 - 0.4 - - 10 - - - -
04/08:30am 6.8 WSW 2 5 1027.3 - 0.4 - Partly cloudy 10 - - - -
04/08:00am 5.9 CALM 0 0 1027.1 - 0.4 - - 10 - - - -
04/07:30am 5.3 CALM 0 0 1026.9 - 0.4 - Partly cloudy 10 - - - -
04/07:00am 4.0 CALM 0 0 1027.0 - 0.4 - - 10 - - - -
04/06:30am 5.1 CALM 0 0 1026.8 - 0.4 - Partly cloudy 10 - - - -
04/06:00am 5.5 CALM 0 0 1026.9 - 0.4 - Cloudy 10 - - - -
04/05:30am 4.7 CALM 0 0 1026.6 - 0.4 - Partly cloudy 10 - - - -
04/05:00am 4.4 CALM 0 0 1026.7 - 0.4 - Partly cloudy 10 - - - -
04/04:30am 5.0 CALM 0 0 1026.6 - 0.4 - Partly cloudy 10 - - - -
04/04:00am 5.2 CALM 0 0 1026.8 - 0.4 - Partly cloudy 10 - - - -
04/03:30am 5.6 WSW 3 9 1027.0 - 0.4 - Partly cloudy 10 - - - -
04/03:00am 5.2 CALM 0 0 1027.2 - 0.4 - Partly cloudy 10 - - - -
04/02:30am 4.9 CALM 0 0 1027.4 - 0.4 - Partly cloudy 8 - - - -
04/02:00am 5.2 CALM 0 0 1027.3 - 0.4 - Partly cloudy 10 - - - -
04/01:30am 4.8 WSW 5 9 1027.5 - 0.4 - Partly cloudy 9 - - - -
04/01:04am 5.5 CALM 0 0 1027.4 - 0.4 - Partly cloudy 10 - - - -
04/01:00am 5.3 CALM 0 0 1027.5 - 0.4 - Partly cloudy 10 - - - -
04/12:45am 5.4 CALM 0 0 1027.6 - 0.4 - Partly cloudy 5 - - - -
04/12:30am 6.2 CALM 0 0 1027.6 - 0.4 - Partly cloudy 10 - - - -
04/12:00am 6.2 WSW 3 6 1027.6 - 0.4 Recent precip. Mostly clear 10 - - - -
 
Date/Time
CST
Temp

°C
Wind Pressure Rain
since 9am
mm
Weather Cloud Vis
km
Sea
Height
m
Swell
Dir
 
Speed
knots
Gust
knots
hPa Trend Height
m
Period
s
Dir
03/11:30pm 7.6 S 5 8 1027.5 - 0.4 - Partly cloudy 10 - - - -
03/11:22pm 7.7 SW 9 12 1027.8 - 0.4 - Partly cloudy 7 - - - -
03/11:03pm 7.8 W 10 12 1027.8 - 0.2 - Partly cloudy 5 - - - -
03/11:00pm 7.8 W 10 13 1027.8 - 0.2 - Partly cloudy 8 - - - -
03/10:30pm 7.7 W 7 9 1027.8 - 0.2 - Partly cloudy 10 - - - -
03/10:00pm 7.4 WSW 7 9 1027.8 - 0.2 - Partly cloudy 10 - - - -
03/09:30pm 6.6 SW 8 10 1028.0 - 0.2 - Partly cloudy 10 - - - -
03/09:00pm 5.9 W 4 4 1027.7 - 0.2 Recent precip. - 10 - - - -
03/08:30pm 7.0 WNW 5 5 1027.7 - 0.0 - Partly cloudy 10 - - - -
03/08:00pm 7.0 W 7 11 1028.0 - 0.0 - Partly cloudy 10 - - - -
03/07:30pm 7.2 WSW 5 5 1027.7 - 0.0 - Partly cloudy 10 - - - -
03/07:00pm 8.2 SSW 7 9 1027.5 - 0.0 - Partly cloudy 10 - - - -
03/06:30pm 7.8 SW 5 7 1027.4 - 0.0 - Partly cloudy 10 - - - -
03/06:00pm 8.8 SW 10 14 1027.3 - 0.0 - Cloudy 10 - - - -
03/05:30pm 8.6 W 8 11 1026.9 - 0.0 - Partly cloudy 10 - - - -
03/05:00pm 9.9 SSW 12 17 1026.7 - 0.0 - Partly cloudy 10 - - - -
03/04:30pm 10.4 SW 6 9 1026.5 - 0.0 - Partly cloudy 10 - - - -
03/04:00pm 10.9 SSW 10 12 1026.2 - 0.0 - Partly cloudy 10 - - - -
03/03:30pm 10.8 SSW 15 22 1026.0 - 0.0 - Partly cloudy 10 - - - -
03/03:00pm 12.6 SSW 11 16 1025.6 - 0.0 - Cloudy 10 - - - -
03/02:30pm 12.0 SSW 12 16 1025.7 - 0.0 - Partly cloudy 10 - - - -
03/02:00pm 11.8 SSW 9 13 1025.6 - 0.0 - Partly cloudy 10 - - - -
03/01:36pm 11.7 SSW 15 26 1025.6 - 0.0 - Partly cloudy 10 - - - -
03/01:30pm 13.9 SSW 12 16 1025.5 - 0.0 - Partly cloudy 10 - - - -
03/01:00pm 12.2 SSW 15 21 1025.6 - 0.0 - Partly cloudy 10 - - - -
03/12:30pm 11.7 SSW 13 17 1025.8 - 0.0 - Partly cloudy 10 - - - -
03/12:07pm 11.0 SSW 15 26 1025.8 - 0.0 - Partly cloudy 10 - - - -
03/12:00pm 13.1 SSW 11 17 1025.8 - 0.0 - Mostly clear 10 - - - -
03/11:30am 11.0 SSW 17 24 1026.3 - 0.0 - Partly cloudy 10 - - - -
03/11:00am 10.4 SSW 14 22 1026.2 - 0.0 - Partly cloudy 10 - - - -
03/10:30am 10.9 SW 17 22 1026.0 - 0.0 - Partly cloudy 10 - - - -
03/10:00am 11.9 WSW 9 13 1025.5 - 0.0 - Partly cloudy 10 - - - -
03/09:30am 11.1 SW 9 11 1025.4 - 0.0 - Partly cloudy 10 - - - -
03/09:00am 9.7 WSW 9 14 1025.3 - 0.4 Rain Partly cloudy 7 - - - -
03/08:30am 9.2 WSW 10 14 1024.8 - 0.2 - Partly cloudy 10 - - - -
03/08:00am 9.0 WSW 10 15 1024.5 - 0.2 - Partly cloudy 10 - - - -
03/07:30am 8.6 W 7 9 1024.1 - 0.2 - Partly cloudy 10 - - - -
03/07:00am 7.4 WSW 5 6 1023.8 - 0.0 - Partly cloudy 10 - - - -
03/06:30am 8.7 WSW 11 14 1023.3 - 0.0 - Partly cloudy 10 - - - -
03/06:00am 9.3 WSW 13 19 1022.8 - 0.0 - Cloudy 10 - - - -
03/05:30am 9.0 WSW 8 11 1022.7 - 0.0 - Partly cloudy 10 - - - -
03/05:00am 9.3 WSW 12 15 1022.6 - 0.0 - Partly cloudy 10 - - - -
03/04:30am 9.0 W 9 12 1022.2 - 0.0 - Partly cloudy 10 - - - -
03/04:25am 9.2 W 9 12 1022.2 - 0.0 - Partly cloudy 10 - - - -
03/04:10am 9.7 WSW 11 14 1022.3 - 0.0 - Partly cloudy 5 - - - -
03/04:00am 9.8 W 11 14 1022.2 - 0.0 - Partly cloudy 10 - - - -
03/03:30am 9.7 WSW 13 19 1022.1 - 0.0 - Partly cloudy 10 - - - -
03/03:22am 10.0 WSW 15 25 1022.0 - 0.0 - Partly cloudy 10 - - - -
03/03:00am 10.4 W 11 15 1022.0 - 0.0 - Partly cloudy 10 - - - -
03/02:30am 10.8 WSW 11 13 1022.1 - 0.0 - Partly cloudy 10 - - - -
03/02:00am 10.8 W 11 14 1022.1 - 0.0 - Cloudy 10 - - - -
03/01:30am 10.7 WSW 11 16 1022.0 - 0.0 - Partly cloudy 10 - - - -
03/01:00am 10.4 W 10 15 1021.9 - 0.0 - Partly cloudy 10 - - - -
03/12:30am 9.1 W 7 8 1021.9 - 0.0 - Partly cloudy 10 - - - -
03/12:00am 10.0 WSW 10 13 1021.9 - 0.0 - Cloudy 10 - - - -
 
Date/Time
CST
Temp

°C
Wind Pressure Rain
since 9am
mm
Weather Cloud Vis
km
Sea
Height
m
Swell
Dir
 
Speed
knots
Gust
knots
hPa Trend Height
m
Period
s
Dir
02/11:30pm 10.4 W 12 15 1021.7 - 0.0 - Partly cloudy 10 - - - -
02/11:00pm 10.3 W 8 11 1021.7 - 0.0 - Partly cloudy 10 - - - -
02/10:30pm 10.1 W 9 11 1021.7 - 0.0 - Partly cloudy 10 - - - -
02/10:00pm 10.1 W 10 13 1021.8 - 0.0 - Partly cloudy 10 - - - -
02/09:30pm 11.0 W 11 19 1021.7 - 0.0 - Partly cloudy 10 - - - -
02/09:00pm 10.9 W 10 14 1021.3 - 0.0 - Mostly cloudy 10 - - - -
02/08:30pm 10.3 WNW 7 10 1021.4 - 0.0 - Partly cloudy 10 - - - -

Other Formats:

Comma delimited format used in spreadsheet applications
http://www.bom.gov.au/fwo/IDS60701/IDS60701.95807.axf

JavaScript Object Notation format (JSON) in row-major order
http://www.bom.gov.au/fwo/IDS60701/IDS60701.95807.json